Time;durP1;ratioP1;P1;durP2;ratioP2;P2;SDS_P1;SDS_P2;PMS_P1;PMS_P2;Temp;Humidity;BMP_temperature;BMP_pressure;BME280_temperature;BME280_humidity;BME280_pressure;Samples;Min_cycle;Max_cycle;Signal;HPM_P1;HPM_P2
2022/06/08 00:01:01;;;;;;;12.95;4.03;;;;;;;14.28;45.49;99610.31;5030840;28;20060;-58
2022/06/08 00:03:36;;;;;;;16.83;4.38;;;;;;;14.34;45.11;99612.38;5029773;28;20068;-55
2022/06/08 00:06:02;;;;;;;14.65;4.00;;;;;;;14.31;44.65;99599.22;5030068;28;20022;-57
2022/06/08 00:08:28;;;;;;;11.15;3.60;;;;;;;14.28;45.31;99599.53;5031073;28;20029;-53
2022/06/08 00:10:54;;;;;;;14.52;4.22;;;;;;;14.30;45.70;99605.63;5030636;28;20176;-54
2022/06/08 00:13:19;;;;;;;13.32;3.75;;;;;;;14.26;45.76;99594.28;5029247;28;20497;-57
2022/06/08 00:15:45;;;;;;;14.45;4.20;;;;;;;14.30;45.53;99605.63;5030739;28;20128;-53
2022/06/08 00:18:10;;;;;;;11.48;3.60;;;;;;;14.30;45.38;99605.63;5028976;28;20044;-56
2022/06/08 00:20:38;;;;;;;12.95;4.30;;;;;;;14.31;45.52;99607.31;5030084;28;20096;-55
2022/06/08 00:23:04;;;;;;;12.27;3.30;;;;;;;14.32;45.33;99609.00;5029893;28;20038;-58
2022/06/08 00:25:30;;;;;;;17.55;3.90;;;;;;;14.32;45.11;99609.00;5029955;28;20068;-55
2022/06/08 00:27:56;;;;;;;14.60;3.35;;;;;;;14.39;44.77;99603.84;5028987;28;20138;-54
2022/06/08 00:30:22;;;;;;;15.32;3.45;;;;;;;14.37;44.90;99595.91;5030130;28;20116;-54
2022/06/08 00:32:48;;;;;;;8.45;3.17;;;;;;;14.31;44.83;99585.75;5030264;28;20029;-59
2022/06/08 00:35:14;;;;;;;15.90;3.60;;;;;;;14.45;44.68;99598.66;5032634;28;20025;-57
2022/06/08 00:37:40;;;;;;;11.85;3.80;;;;;;;14.44;44.72;99599.66;5033834;28;20067;-52
2022/06/08 00:40:08;;;;;;;7.40;3.60;;;;;;;14.50;44.50;99599.06;5033703;28;20083;-55
2022/06/08 00:42:34;;;;;;;12.45;3.75;;;;;;;14.52;44.34;99598.91;5033585;28;20111;-54
2022/06/08 00:45:12;;;;;;;20.17;4.25;;;;;;;14.64;44.25;99594.97;5033556;28;20182;-58
2022/06/08 00:47:46;;;;;;;11.80;3.60;;;;;;;14.67;44.14;99595.66;5033739;28;20030;-53
2022/06/08 00:50:18;;;;;;;13.10;3.53;;;;;;;14.67;44.21;99604.56;5033811;28;20525;-52
2022/06/08 00:52:45;;;;;;;10.70;3.33;;;;;;;14.66;44.26;99605.56;5033283;28;20045;-54
2022/06/08 00:55:13;;;;;;;11.23;3.50;;;;;;;14.69;44.62;99605.25;5032974;28;20045;-53
2022/06/08 00:57:47;;;;;;;14.10;3.67;;;;;;;14.60;44.41;99572.03;5033756;28;20061;-52
2022/06/08 01:00:19;;;;;;;13.05;4.03;;;;;;;14.71;44.12;99587.16;5033638;28;20060;-55
2022/06/08 01:02:45;;;;;;;11.77;3.88;;;;;;;14.73;44.71;99585.16;5033142;28;20045;-50
2022/06/08 01:05:23;;;;;;;14.38;4.03;;;;;;;14.82;44.35;99599.50;5033682;28;20087;-51
2022/06/08 01:07:53;;;;;;;13.23;3.78;;;;;;;14.79;44.17;99594.44;5033704;28;20418;-52
2022/06/08 01:10:22;;;;;;;16.42;4.60;;;;;;;14.81;43.88;99591.59;5033474;28;20076;-56
2022/06/08 01:12:47;;;;;;;12.70;4.50;;;;;;;14.69;43.54;99572.94;5033291;28;20341;-55
2022/06/08 01:15:16;;;;;;;13.40;4.63;;;;;;;14.84;43.68;99585.88;5033650;28;20648;-52
2022/06/08 01:17:41;;;;;;;12.55;4.53;;;;;;;14.84;44.49;99586.75;5032753;28;20042;-52
2022/06/08 01:20:10;;;;;;;18.13;4.70;;;;;;;14.86;43.96;99594.66;5031262;28;20050;-54
2022/06/08 01:22:36;;;;;;;12.43;4.90;;;;;;;14.87;44.09;99591.81;5032893;28;20535;-56
2022/06/08 01:25:03;;;;;;;10.68;4.50;;;;;;;14.90;43.82;99598.72;5033413;28;20040;-53
2022/06/08 01:27:50;;;;;;;13.32;4.85;;;;;;;15.06;43.53;99592.59;5033122;28;20059;-59
2022/06/08 01:30:19;;;;;;;11.20;4.82;;;;;;;15.02;43.75;99589.38;5032470;28;20033;-53
2022/06/08 01:33:04;;;;;;;12.63;5.10;;;;;;;15.11;43.46;99590.28;5032852;28;20033;-57
2022/06/08 01:35:43;;;;;;;13.20;5.15;;;;;;;15.19;43.35;99587.63;5033283;28;20064;-53
2022/06/08 01:38:24;;;;;;;21.00;5.32;;;;;;;15.23;43.52;99598.94;5032269;28;20104;-54
2022/06/08 01:41:34;;;;;;;15.60;5.88;;;;;;;15.29;42.76;99589.34;5032891;28;20040;-50
2022/06/08 01:44:21;;;;;;;13.63;5.05;;;;;;;15.39;43.19;99602.72;5013378;28;20088;-53
2022/06/08 01:47:01;;;;;;;14.00;5.20;;;;;;;15.39;43.22;99598.19;5012931;28;20373;-52
2022/06/08 01:49:35;;;;;;;11.75;4.85;;;;;;;15.47;43.15;99605.47;5012577;28;20037;-54
2022/06/08 01:52:09;;;;;;;11.02;4.75;;;;;;;15.52;42.52;99604.97;5021596;28;20122;-52
2022/06/08 01:54:53;;;;;;;9.00;4.35;;;;;;;15.51;42.59;99604.13;5032610;28;20033;-54
2022/06/08 01:57:35;;;;;;;9.52;4.20;;;;;;;15.69;42.03;99614.00;5032149;28;20034;-53
2022/06/08 02:00:09;;;;;;;13.40;5.07;;;;;;;15.65;42.79;99611.59;5032295;28;20041;-53
2022/06/08 02:03:00;;;;;;;10.10;4.32;;;;;;;15.77;43.23;99608.63;5032074;28;20029;-53
2022/06/08 02:05:31;;;;;;;15.02;4.78;;;;;;;15.67;42.70;99605.19;5032400;28;20037;-55
2022/06/08 02:08:00;;;;;;;13.57;4.45;;;;;;;15.64;42.56;99593.72;5032050;28;20044;-53
2022/06/08 02:10:32;;;;;;;10.52;4.57;;;;;;;15.60;43.07;99603.16;5031842;28;20033;-51
2022/06/08 02:13:15;;;;;;;9.90;4.03;;;;;;;15.74;43.04;99607.09;5032100;28;20127;-52
2022/06/08 02:15:49;;;;;;;9.75;4.40;;;;;;;15.76;42.84;99599.66;5031692;28;20041;-54
2022/06/08 02:18:34;;;;;;;10.52;4.53;;;;;;;15.95;42.70;99616.66;5031536;28;20035;-51
2022/06/08 02:21:11;;;;;;;10.27;4.80;;;;;;;16.12;42.28;99614.81;5031014;28;20446;-53
2022/06/08 02:24:04;;;;;;;9.43;4.43;;;;;;;16.36;41.80;99618.59;5031766;28;20509;-53
2022/06/08 02:26:29;;;;;;;7.45;3.70;;;;;;;16.44;41.63;99615.06;5030968;28;20381;-55
2022/06/08 02:29:10;;;;;;;9.23;4.25;;;;;;;16.69;41.36;99618.63;5032103;28;20132;-52
2022/06/08 02:31:50;;;;;;;8.30;4.60;;;;;;;17.00;40.65;99620.66;5031169;28;20041;-54
2022/06/08 02:34:31;;;;;;;14.90;4.40;;;;;;;17.28;39.66;99630.25;5031573;28;20030;-55
2022/06/08 02:37:01;;;;;;;10.40;4.22;;;;;;;17.60;39.20;99621.22;5030869;28;20033;-56
2022/06/08 02:39:29;;;;;;;12.80;3.95;;;;;;;17.81;38.75;99627.88;5031005;28;20140;-55
2022/06/08 02:42:02;;;;;;;10.60;3.60;;;;;;;18.02;38.21;99623.75;5031537;28;20033;-55
2022/06/08 02:44:31;;;;;;;11.70;3.85;;;;;;;18.14;37.71;99624.19;5031890;28;20493;-56
2022/06/08 02:47:31;;;;;;;10.23;3.97;;;;;;;18.33;37.60;99622.91;5031232;28;20021;-64
2022/06/08 02:50:00;;;;;;;7.97;3.70;;;;;;;18.24;37.77;99623.97;5011540;28;20030;-56
2022/06/08 02:52:27;;;;;;;7.40;3.88;;;;;;;18.11;38.20;99630.81;5012160;28;20117;-61
2022/06/08 02:54:53;;;;;;;10.55;4.35;;;;;;;17.88;38.74;99601.78;5012055;28;20139;-55
2022/06/08 02:57:24;;;;;;;10.90;4.03;;;;;;;18.17;38.49;99632.81;5012392;28;20133;-57
2022/06/08 03:00:08;;;;;;;8.88;3.55;;;;;;;18.35;37.97;99623.56;5031488;28;20086;-55
2022/06/08 03:02:39;;;;;;;6.05;3.47;;;;;;;18.43;38.04;99631.63;5031487;28;20036;-56
2022/06/08 03:05:31;;;;;;;8.20;3.45;;;;;;;18.57;37.44;99616.44;5031099;28;20040;-57
2022/06/08 03:08:04;;;;;;;5.43;3.30;;;;;;;18.81;37.33;99644.38;5018291;28;20116;-54
2022/06/08 03:10:37;;;;;;;5.40;3.28;;;;;;;18.73;37.29;99615.47;5031359;28;20033;-55
2022/06/08 03:13:14;;;;;;;9.25;3.63;;;;;;;18.88;36.88;99644.50;5031284;28;20548;-54
2022/06/08 03:15:42;;;;;;;9.57;3.63;;;;;;;19.01;36.61;99644.75;5030526;28;20049;-54
2022/06/08 03:18:08;;;;;;;8.48;3.30;;;;;;;19.26;36.47;99649.94;5030962;28;20029;-55
2022/06/08 03:20:35;;;;;;;14.13;3.78;;;;;;;19.57;36.50;99654.38;5029828;28;20164;-56
2022/06/08 03:23:01;;;;;;;11.20;3.58;;;;;;;20.02;34.68;99642.66;5030550;28;20029;-54
2022/06/08 03:25:28;;;;;;;9.63;3.83;;;;;;;20.57;34.49;99643.03;5030925;28;20099;-52
2022/06/08 03:27:53;;;;;;;12.48;3.55;;;;;;;21.28;32.36;99641.38;5029501;28;20029;-55
2022/06/08 03:30:19;;;;;;;13.32;3.50;;;;;;;21.74;31.38;99644.63;5031194;28;20037;-54
2022/06/08 03:32:45;;;;;;;10.75;4.15;;;;;;;22.08;31.41;99649.16;5031173;28;20430;-55
2022/06/08 03:35:11;;;;;;;7.55;3.75;;;;;;;22.46;30.20;99650.56;5029749;28;20038;-51
2022/06/08 03:37:36;;;;;;;7.15;3.63;;;;;;;22.86;29.49;99648.91;5030272;28;20052;-53
2022/06/08 03:40:03;;;;;;;6.80;3.08;;;;;;;23.58;28.58;99657.28;5031346;28;20030;-57
2022/06/08 03:42:29;;;;;;;7.55;3.67;;;;;;;24.27;27.42;99653.28;5030615;28;20033;-64
2022/06/08 03:44:55;;;;;;;7.22;3.50;;;;;;;24.88;26.59;99649.13;5030718;28;20095;-57
2022/06/08 03:47:24;;;;;;;7.13;3.10;;;;;;;25.41;25.62;99641.47;5029121;28;20029;-53
2022/06/08 03:49:52;;;;;;;4.85;3.22;;;;;;;25.92;24.97;99647.69;5031005;28;20099;-55
2022/06/08 03:52:23;;;;;;;6.95;3.60;;;;;;;26.37;24.29;99642.94;5030785;28;20029;-54
2022/06/08 03:54:54;;;;;;;9.90;3.65;;;;;;;26.86;23.93;99642.84;5030354;28;20389;-56
2022/06/08 03:57:21;;;;;;;9.45;3.33;;;;;;;27.25;23.07;99641.56;5029956;28;20304;-56
2022/06/08 03:59:49;;;;;;;8.85;3.63;;;;;;;27.98;22.48;99657.78;5030967;28;20037;-58
2022/06/08 04:02:15;;;;;;;13.27;4.40;;;;;;;28.12;21.80;99642.63;5029166;28;20029;-57
2022/06/08 04:04:41;;;;;;;7.47;3.70;;;;;;;28.57;21.30;99645.72;5028081;28;20532;-57
2022/06/08 04:07:08;;;;;;;9.65;3.72;;;;;;;28.92;20.58;99655.69;5027953;28;20029;-55
2022/06/08 04:09:33;;;;;;;7.38;3.63;;;;;;;29.43;20.21;99652.94;5030781;28;20025;-56
2022/06/08 04:11:59;;;;;;;10.02;3.90;;;;;;;30.16;19.72;99660.28;5033476;28;20021;-52
2022/06/08 04:14:25;;;;;;;12.07;3.88;;;;;;;30.71;18.95;99653.94;5032919;28;20036;-58
2022/06/08 04:16:51;;;;;;;7.70;4.25;;;;;;;31.44;17.86;99663.66;5022807;28;20533;-52
2022/06/08 04:19:18;;;;;;;11.20;4.20;;;;;;;31.91;17.20;99668.34;5031691;28;20068;-54
2022/06/08 04:21:43;;;;;;;14.25;4.30;;;;;;;32.66;16.55;99660.81;5032365;28;20323;-56
2022/06/08 04:24:12;;;;;;;10.45;3.97;;;;;;;33.31;16.48;99656.66;5029893;28;20163;-54
2022/06/08 04:26:38;;;;;;;8.18;3.92;;;;;;;33.81;15.36;99653.22;5032590;28;20384;-57
2022/06/08 04:29:06;;;;;;;7.38;3.38;;;;;;;34.56;14.44;99662.63;5031826;28;20058;-64
2022/06/08 04:31:34;;;;;;;7.35;3.08;;;;;;;34.83;13.61;99662.09;5032358;28;20405;-65
2022/06/08 04:34:01;;;;;;;6.45;2.72;;;;;;;35.20;12.86;99634.81;5032969;28;20043;-62
2022/06/08 04:36:27;;;;;;;4.50;2.72;;;;;;;35.88;12.43;99657.22;5032693;28;20434;-64
2022/06/08 04:38:53;;;;;;;4.88;2.45;;;;;;;36.25;11.63;99658.41;5029861;28;20040;-62
2022/06/08 04:41:19;;;;;;;4.45;2.20;;;;;;;36.70;11.43;99660.00;5032685;28;20409;-63
2022/06/08 04:43:45;;;;;;;7.13;2.25;;;;;;;37.33;10.96;99658.66;5028096;28;20107;-59
2022/06/08 04:46:17;;;;;;;3.97;2.60;;;;;;;37.83;10.82;99654.34;5032574;28;20061;-63
2022/06/08 04:48:45;;;;;;;5.05;1.85;;;;;;;38.58;9.96;99654.13;5029252;28;20111;-59
2022/06/08 04:51:11;;;;;;;4.75;2.00;;;;;;;39.15;8.85;99654.72;5032159;28;20040;-62
2022/06/08 04:53:42;;;;;;;5.45;1.83;;;;;;;39.70;8.66;99644.25;5032318;28;20059;-63
2022/06/08 04:56:08;;;;;;;4.32;1.80;;;;;;;40.05;8.40;99644.38;5032968;28;20021;-62
2022/06/08 04:58:34;;;;;;;2.10;1.85;;;;;;;40.46;8.34;99634.69;5025860;28;20461;-61
2022/06/08 05:01:00;;;;;;;9.07;2.13;;;;;;;40.71;7.82;99649.03;5032216;28;20430;-65
2022/06/08 05:03:26;;;;;;;3.13;1.88;;;;;;;40.90;7.79;99645.06;5032308;28;20044;-63
2022/06/08 05:05:51;;;;;;;5.65;1.85;;;;;;;41.50;7.74;99636.78;5032301;28;20057;-63
2022/06/08 05:08:18;;;;;;;6.18;2.03;;;;;;;41.52;7.46;99645.72;5032281;28;20116;-64
2022/06/08 05:10:45;;;;;;;5.43;2.15;;;;;;;41.38;7.68;99645.09;5024413;28;20026;-65
2022/06/08 05:13:11;;;;;;;4.50;2.20;;;;;;;41.31;7.89;99646.47;5032495;28;20474;-63
2022/06/08 05:15:39;;;;;;;2.35;2.00;;;;;;;41.42;7.77;99651.69;5032243;28;20033;-65
2022/06/08 05:18:06;;;;;;;5.30;2.42;;;;;;;41.11;7.92;99647.16;5021642;28;20432;-63
2022/06/08 05:20:33;;;;;;;7.30;2.30;;;;;;;41.47;7.87;99648.69;5004555;28;20069;-68
2022/06/08 05:23:00;;;;;;;4.13;2.42;;;;;;;41.48;7.90;99650.38;5032224;28;20093;-63
2022/06/08 05:25:34;;;;;;;5.47;2.40;;;;;;;41.66;8.25;99656.75;5030976;28;20021;-62
2022/06/08 05:28:00;;;;;;;;;;;;;;;43.29;7.10;99657.28;5031666;28;20397;-65
2022/06/08 05:30:27;;;;;;;4.72;1.90;;;;;;;41.81;7.65;99660.13;5032045;28;19920;-64
2022/06/08 05:32:53;;;;;;;3.97;2.20;;;;;;;42.21;7.75;99647.66;5033178;28;20095;-64
2022/06/08 05:35:21;;;;;;;5.15;2.13;;;;;;;42.88;7.21;99661.84;5033481;28;20028;-63
2022/06/08 05:37:47;;;;;;;5.18;2.17;;;;;;;43.55;6.48;99658.94;5032894;28;20513;-64
2022/06/08 05:40:13;;;;;;;4.68;2.17;;;;;;;43.95;6.08;99653.78;5031930;28;20033;-65
2022/06/08 05:42:39;;;;;;;4.43;1.77;;;;;;;44.89;6.09;99662.19;5032377;28;20044;-66
2022/06/08 05:45:07;;;;;;;5.47;2.33;;;;;;;45.19;5.87;99652.50;5032824;28;20491;-64
2022/06/08 05:47:33;;;;;;;5.20;1.90;;;;;;;45.50;5.60;99663.00;5032872;28;20124;-66
2022/06/08 05:49:59;;;;;;;5.15;2.08;;;;;;;45.68;5.52;99660.63;5032888;28;20451;-63
2022/06/08 05:52:26;;;;;;;3.10;1.77;;;;;;;45.65;5.56;99664.19;5031243;28;20026;-63
2022/06/08 05:54:52;;;;;;;2.45;2.00;;;;;;;45.61;5.39;99662.47;5033088;28;20052;-64
2022/06/08 05:57:18;;;;;;;4.35;1.70;;;;;;;45.45;5.00;99666.94;5031290;28;20088;-63
2022/06/08 05:59:43;;;;;;;4.75;1.75;;;;;;;45.11;5.64;99651.50;5030977;28;20029;-63
2022/06/08 06:02:12;;;;;;;3.63;1.83;;;;;;;46.00;5.38;99676.72;5032257;28;20137;-62
2022/06/08 06:04:37;;;;;;;2.97;1.60;;;;;;;46.48;4.84;99658.78;5031987;28;20115;-62
2022/06/08 06:07:03;;;;;;;3.22;1.80;;;;;;;47.37;4.89;99663.75;5027594;28;20047;-63
2022/06/08 06:09:29;;;;;;;3.30;1.73;;;;;;;47.24;4.46;99663.91;5055130;28;20445;-62
2022/06/08 06:11:54;;;;;;;1.58;1.48;;;;;;;47.54;4.68;99660.41;5031206;28;20029;-63
2022/06/08 06:14:20;;;;;;;2.95;1.65;;;;;;;47.40;4.20;99665.84;5032218;28;20481;-63
2022/06/08 06:16:45;;;;;;;3.35;1.60;;;;;;;46.78;4.28;99664.69;5032012;28;20528;-63
2022/06/08 06:19:11;;;;;;;4.43;1.60;;;;;;;45.92;4.49;99672.09;5031894;28;20045;-63
2022/06/08 06:21:37;;;;;;;2.25;1.60;;;;;;;45.71;4.95;99673.22;5030385;28;20037;-63
2022/06/08 06:24:04;;;;;;;4.05;1.85;;;;;;;46.52;4.66;99677.53;5032575;28;20120;-63
2022/06/08 06:26:30;;;;;;;5.20;1.60;;;;;;;47.15;4.43;99669.03;5032206;28;20048;-62
2022/06/08 06:28:57;;;;;;;2.17;1.50;;;;;;;46.92;4.29;99661.31;5032565;28;20041;-64
2022/06/08 06:31:27;;;;;;;3.45;1.60;;;;;;;47.47;4.06;99674.44;5031169;28;20033;-63
2022/06/08 06:33:53;;;;;;;2.22;1.50;;;;;;;48.05;3.78;99664.03;5031353;28;20048;-63
2022/06/08 06:36:18;;;;;;;3.17;1.55;;;;;;;48.92;3.42;99665.13;5031806;28;20029;-62
2022/06/08 06:38:44;;;;;;;5.15;1.45;;;;;;;49.79;3.29;99665.88;5030651;28;20044;-64
2022/06/08 06:41:14;;;;;;;4.57;1.70;;;;;;;50.52;2.77;99689.06;5030643;28;20104;-65
2022/06/08 06:43:40;;;;;;;2.67;1.50;;;;;;;50.07;3.01;99664.44;5031964;28;20031;-63
2022/06/08 06:46:05;;;;;;;3.20;1.48;;;;;;;49.63;3.03;99668.22;5031681;28;20108;-67
2022/06/08 06:48:30;;;;;;;5.43;1.80;;;;;;;48.27;3.64;99675.69;5030555;28;20041;-64
2022/06/08 06:50:56;;;;;;;3.08;1.60;;;;;;;47.85;3.38;99669.81;5031200;28;20037;-63
2022/06/08 06:53:21;;;;;;;2.58;1.52;;;;;;;47.46;4.13;99661.47;5030346;28;20040;-65
2022/06/08 06:55:47;;;;;;;3.22;1.60;;;;;;;48.08;3.70;99660.44;5024816;28;20118;-63
2022/06/08 06:58:12;;;;;;;1.95;1.42;;;;;;;48.33;3.70;99661.94;5023628;28;20040;-64
2022/06/08 07:00:38;;;;;;;4.80;1.40;;;;;;;49.42;2.92;99638.38;5031206;28;20028;-64
2022/06/08 07:03:04;;;;;;;3.72;1.45;;;;;;;50.41;2.60;99667.09;5029202;28;20040;-63
2022/06/08 07:05:34;;;;;;;3.65;1.60;;;;;;;51.62;2.33;99676.66;5027641;28;20064;-63
2022/06/08 07:08:00;;;;;;;2.45;1.50;;;;;;;51.50;2.17;99655.09;5017242;28;20057;-64
2022/06/08 07:10:26;;;;;;;2.63;1.70;;;;;;;51.85;1.85;99666.84;5029025;28;20409;-64
2022/06/08 07:12:51;;;;;;;3.95;1.65;;;;;;;51.89;1.87;99642.78;5027918;28;20033;-65
2022/06/08 07:15:20;;;;;;;3.47;1.70;;;;;;;52.71;1.61;99667.81;5025335;28;20087;-61
2022/06/08 07:17:45;;;;;;;2.13;1.92;;;;;;;52.18;1.56;99670.47;5021618;28;20037;-66
2022/06/08 07:20:12;;;;;;;2.60;1.80;;;;;;;51.91;1.71;99671.72;5026138;28;20053;-62
2022/06/08 07:22:38;;;;;;;4.25;2.13;;;;;;;52.31;2.06;99671.59;5030539;28;20033;-64
2022/06/08 07:25:06;;;;;;;2.53;2.30;;;;;;;52.06;1.11;99675.38;5031240;28;20030;-67
2022/06/08 07:27:32;;;;;;;2.95;1.88;;;;;;;51.62;1.82;99676.66;5030553;28;20033;-63
2022/06/08 07:29:57;;;;;;;3.35;1.92;;;;;;;51.79;1.33;99677.88;5023466;28;20033;-63
2022/06/08 07:32:23;;;;;;;2.42;1.90;;;;;;;51.94;1.50;99678.66;5021429;28;20060;-64
2022/06/08 07:34:48;;;;;;;2.30;1.92;;;;;;;52.19;1.30;99669.22;5029888;28;20377;-64
2022/06/08 07:37:14;;;;;;;5.03;2.53;;;;;;;52.22;1.75;99668.41;5027406;28;20151;-65
2022/06/08 07:39:40;;;;;;;2.83;2.20;;;;;;;52.21;1.70;99669.63;5014438;28;20306;-63
2022/06/08 07:42:06;;;;;;;3.30;2.05;;;;;;;51.91;1.67;99674.59;5031402;28;20049;-64
2022/06/08 07:44:31;;;;;;;9.48;2.40;;;;;;;51.81;1.76;99656.25;5030244;28;20029;-65
2022/06/08 07:46:57;;;;;;;3.05;2.75;;;;;;;52.58;1.34;99665.41;5031217;28;20510;-63
2022/06/08 07:49:49;;;;;;;3.08;2.05;;;;;;;52.45;1.21;99672.81;5022264;28;20519;-63
2022/06/08 07:52:21;;;;;;;4.53;2.65;;;;;;;53.08;1.13;99661.44;5024549;28;20029;-63
2022/06/08 07:54:48;;;;;;;3.60;2.63;;;;;;;52.58;1.24;99647.44;5029857;28;20079;-64
2022/06/08 07:57:32;;;;;;;3.20;2.55;;;;;;;54.06;0.76;99666.28;5030611;28;20033;-64
2022/06/08 07:59:58;;;;;;;3.80;2.50;;;;;;;52.88;0.95;99661.16;5013031;28;20121;-66
2022/06/08 08:02:24;;;;;;;3.38;2.60;;;;;;;52.53;1.51;99657.25;5028361;28;20476;-64
2022/06/08 08:04:50;;;;;;;2.40;2.22;;;;;;;52.28;0.96;99658.16;5029385;28;20139;-63
2022/06/08 08:07:16;;;;;;;3.47;2.70;;;;;;;51.41;1.43;99632.69;5030083;28;20033;-63
2022/06/08 08:09:42;;;;;;;3.65;2.50;;;;;;;50.74;2.05;99655.00;5029427;28;20079;-63
2022/06/08 08:12:10;;;;;;;2.60;2.20;;;;;;;50.21;1.55;99660.84;5030148;28;20033;-63
2022/06/08 08:14:35;;;;;;;2.22;2.03;;;;;;;49.18;2.17;99649.13;5030836;28;20034;-63
2022/06/08 08:17:02;;;;;;;1.77;1.63;;;;;;;48.68;2.61;99655.09;5030126;28;20481;-65
2022/06/08 08:19:28;;;;;;;3.70;1.90;;;;;;;47.80;3.14;99630.44;5020815;28;20046;-65
2022/06/08 08:21:54;;;;;;;2.65;1.60;;;;;;;45.77;4.11;99651.16;5027941;28;20041;-65
2022/06/08 08:24:19;;;;;;;6.05;1.30;;;;;;;42.52;5.71;99650.06;5030347;28;20037;-64
2022/06/08 08:26:48;;;;;;;2.85;1.27;;;;;;;39.38;7.28;99660.28;5029828;28;20132;-65
2022/06/08 08:29:15;;;;;;;4.57;1.25;;;;;;;36.44;8.82;99641.72;5029269;28;20033;-65
2022/06/08 08:31:41;;;;;;;3.05;1.05;;;;;;;34.00;10.64;99629.28;5029772;28;20083;-64
2022/06/08 08:34:08;;;;;;;3.35;1.45;;;;;;;32.56;12.46;99653.31;5025703;28;20382;-64
2022/06/08 08:36:33;;;;;;;2.35;1.42;;;;;;;31.33;12.60;99646.16;5009981;28;20033;-64
2022/06/08 08:38:59;;;;;;;4.03;1.10;;;;;;;30.40;14.03;99648.06;5029728;28;20492;-62
2022/06/08 08:44:31;;;;;;;3.47;1.05;;;;;;;29.07;14.59;99644.94;5029603;28;20040;-65
2022/06/08 08:47:28;;;;;;;3.53;1.08;;;;;;;28.36;14.83;99654.44;5030140;28;20064;-61
2022/06/08 08:50:09;;;;;;;2.83;1.48;;;;;;;27.87;15.36;99662.22;5025908;28;20484;-63
2022/06/08 08:52:41;;;;;;;1.95;1.08;;;;;;;27.37;15.63;99640.50;5029636;28;20091;-61
2022/06/08 08:55:16;;;;;;;8.68;2.95;;;;;;;27.17;15.99;99653.75;5029780;28;20477;-62
2022/06/08 08:57:50;;;;;;;1.95;1.17;;;;;;;26.78;16.46;99644.00;5033869;28;20493;-64
2022/06/08 09:00:39;;;;;;;2.43;1.13;;;;;;;26.64;16.32;99640.63;5032083;28;20037;-63
2022/06/08 09:03:39;;;;;;;2.67;1.00;;;;;;;26.48;15.83;99650.34;5032934;28;20274;-62
2022/06/08 09:06:14;;;;;;;10.85;2.55;;;;;;;26.36;17.04;99642.09;5027792;28;20030;-63
2022/06/08 09:08:44;;;;;;;3.53;1.40;;;;;;;26.19;17.42;99652.06;5033771;28;20461;-61
2022/06/08 09:11:14;;;;;;;4.57;1.38;;;;;;;26.19;17.24;99641.91;5033401;28;20058;-62
2022/06/08 09:13:47;;;;;;;2.40;1.20;;;;;;;26.17;17.11;99638.56;5033546;28;20047;-61
2022/06/08 09:16:35;;;;;;;3.35;1.33;;;;;;;26.20;17.22;99642.75;5033477;28;20033;-62
2022/06/08 09:19:22;;;;;;;3.13;1.35;;;;;;;26.20;16.46;99640.00;5031620;28;20053;-61
2022/06/08 09:21:55;;;;;;;2.83;1.10;;;;;;;26.09;17.73;99636.09;5029894;28;20037;-61
2022/06/08 09:24:29;;;;;;;4.32;1.48;;;;;;;26.06;17.18;99634.66;5031278;28;20033;-62
2022/06/08 09:27:05;;;;;;;2.45;1.23;;;;;;;26.01;18.79;99629.03;5031099;28;20443;-63
2022/06/08 09:29:31;;;;;;;2.22;1.40;;;;;;;25.79;17.67;99631.41;5032712;28;20044;-62
2022/06/08 09:31:56;;;;;;;1.92;1.08;;;;;;;25.57;19.31;99628.28;5032927;28;20033;-64
2022/06/08 09:34:34;;;;;;;1.85;1.20;;;;;;;25.59;19.04;99634.38;5033242;28;20025;-63
2022/06/08 09:37:23;;;;;;;2.80;1.10;;;;;;;25.47;18.87;99631.56;5013223;28;20029;-63
2022/06/08 09:39:49;;;;;;;2.80;1.17;;;;;;;25.30;19.44;99629.38;5029060;28;20033;-63
2022/06/08 09:42:25;;;;;;;2.22;1.10;;;;;;;25.41;18.58;99633.25;5031210;28;20083;-61
2022/06/08 09:44:57;;;;;;;;;;;;;;;25.69;17.97;99626.47;5032483;28;20109;-63
2022/06/08 09:53:39;;;;;;;2.92;1.20;;;;;;;25.39;19.04;99626.34;5032461;28;19913;-63
2022/06/08 09:56:16;;;;;;;3.30;1.23;;;;;;;25.34;19.89;99619.66;5031115;28;20492;-63
2022/06/08 09:58:58;;;;;;;1.65;1.20;;;;;;;25.31;18.45;99620.06;5030731;28;20087;-63
2022/06/08 10:01:43;;;;;;;4.47;1.60;;;;;;;25.22;18.42;99611.34;5029533;28;20056;-62
2022/06/08 10:04:10;;;;;;;3.67;1.37;;;;;;;25.00;18.83;99608.16;5032179;28;20036;-62
2022/06/08 10:07:03;;;;;;;3.97;1.50;;;;;;;25.15;19.23;99615.19;5016652;28;20045;-62
2022/06/08 10:09:58;;;;;;;4.75;1.60;;;;;;;25.24;19.08;99619.31;5012746;28;20108;-62
2022/06/08 10:12:35;;;;;;;2.65;1.40;;;;;;;25.13;19.56;99614.59;5011177;28;20136;-63
2022/06/08 10:15:32;;;;;;;3.30;1.50;;;;;;;25.29;18.88;99627.69;5010908;28;20048;-62
2022/06/08 10:18:15;;;;;;;3.53;1.45;;;;;;;25.08;19.30;99607.91;5011929;28;20034;-62
2022/06/08 10:21:13;;;;;;;3.17;1.23;;;;;;;25.28;19.02;99611.50;5048414;28;20358;-62
2022/06/08 10:24:12;;;;;;;1.58;1.23;;;;;;;25.40;19.51;99611.59;5030597;28;20390;-65
2022/06/08 10:26:46;;;;;;;3.85;1.20;;;;;;;25.35;19.54;99615.00;5032345;28;20033;-63
2022/06/08 10:29:37;;;;;;;4.28;1.40;;;;;;;25.25;19.48;99606.47;5032146;28;20505;-63
2022/06/08 10:32:27;;;;;;;3.45;1.48;;;;;;;25.16;18.77;99605.91;5032164;28;20045;-63
2022/06/08 10:34:54;;;;;;;3.65;1.52;;;;;;;24.98;19.53;99593.84;5031448;28;20053;-64
2022/06/08 10:37:40;;;;;;;4.68;1.42;;;;;;;25.25;19.61;99604.56;5031456;28;20036;-65
2022/06/08 10:40:08;;;;;;;2.08;1.35;;;;;;;25.18;20.12;99595.56;5031590;28;20390;-64
2022/06/08 10:42:40;;;;;;;4.88;1.50;;;;;;;25.32;19.94;99599.88;5030507;28;20079;-64
2022/06/08 10:45:20;;;;;;;2.97;1.35;;;;;;;25.55;19.55;99601.09;5030113;28;20047;-62
2022/06/08 10:48:10;;;;;;;2.03;1.38;;;;;;;25.67;19.29;99595.69;5031817;28;20033;-65
2022/06/08 10:50:43;;;;;;;5.07;1.58;;;;;;;25.69;20.37;99600.94;5028702;28;20753;-65
2022/06/08 10:56:23;;;;;;;1.33;1.20;;;;;;;25.76;19.15;99594.31;5028654;28;20495;-63
2022/06/08 10:58:55;;;;;;;3.63;1.58;;;;;;;25.73;19.47;99596.69;5031477;28;20072;-69
2022/06/08 11:01:33;;;;;;;3.47;1.30;;;;;;;25.76;19.01;99588.84;5031925;28;20075;-63
2022/06/08 11:04:01;;;;;;;2.13;1.40;;;;;;;25.68;18.72;99582.81;5032223;28;20029;-64
2022/06/08 11:06:45;;;;;;;5.47;1.73;;;;;;;25.81;18.80;99588.16;5030731;28;20103;-65
2022/06/08 11:09:20;;;;;;;5.25;1.70;;;;;;;25.78;18.10;99591.34;5031380;28;20033;-64
2022/06/08 11:11:49;;;;;;;2.10;1.40;;;;;;;25.71;18.27;99582.38;5032199;28;20500;-63
2022/06/08 11:14:43;;;;;;;2.80;1.33;;;;;;;25.82;18.03;99584.34;5031266;28;20052;-64
2022/06/08 11:17:13;;;;;;;5.45;1.52;;;;;;;25.53;17.87;99580.47;5023119;28;20087;-62
2022/06/08 11:19:39;;;;;;;2.70;1.27;;;;;;;25.33;18.05;99578.75;5030648;28;20119;-64
2022/06/08 11:22:11;;;;;;;2.67;1.02;;;;;;;25.36;17.94;99578.31;5019941;28;20473;-63
2022/06/08 11:24:40;;;;;;;1.77;1.30;;;;;;;25.29;17.46;99583.84;5014679;28;20040;-63
2022/06/08 11:27:11;;;;;;;5.18;1.45;;;;;;;25.21;17.51;99582.28;5030694;28;20042;-62
2022/06/08 11:29:55;;;;;;;5.10;1.13;;;;;;;25.20;17.92;99579.75;5031189;28;20045;-62
2022/06/08 11:32:31;;;;;;;3.03;1.25;;;;;;;24.97;17.89;99561.25;5030892;28;20033;-64
2022/06/08 11:35:06;;;;;;;1.33;1.05;;;;;;;25.05;17.66;99580.94;5029822;28;20112;-67
2022/06/08 11:37:54;;;;;;;1.55;1.05;;;;;;;25.00;17.71;99583.50;5025835;28;20044;-65
2022/06/08 11:40:27;;;;;;;1.30;1.08;;;;;;;24.98;17.09;99571.94;5012137;28;20040;-65
2022/06/08 11:42:58;;;;;;;7.93;1.45;;;;;;;24.93;18.08;99571.78;5029582;28;20033;-67
2022/06/08 11:45:36;;;;;;;4.05;1.25;;;;;;;25.02;17.95;99583.31;5016171;28;20025;-61
2022/06/08 11:48:18;;;;;;;3.60;1.40;;;;;;;25.16;17.67;99581.28;5029535;28;20049;-65
2022/06/08 11:50:53;;;;;;;1.52;1.27;;;;;;;24.88;17.25;99545.06;5030734;28;20140;-65
2022/06/08 11:53:38;;;;;;;1.83;1.27;;;;;;;25.18;17.57;99577.22;5011843;28;20026;-66
2022/06/08 11:56:19;;;;;;;4.30;1.15;;;;;;;25.19;18.12;99578.06;5026383;28;20033;-66
2022/06/08 11:58:49;;;;;;;2.45;1.10;;;;;;;24.94;18.73;99555.13;5030611;28;20071;-66
2022/06/08 12:01:22;;;;;;;1.88;1.13;;;;;;;25.14;18.78;99570.53;5030683;28;20476;-66
2022/06/08 12:03:55;;;;;;;5.18;1.20;;;;;;;25.13;18.84;99573.50;5030142;28;20089;-66
2022/06/08 12:06:25;;;;;;;1.80;1.30;;;;;;;25.16;18.78;99567.56;5026502;28;20466;-64